Airfield :
LOGIN :

Register | Disclaimer

   EN    FR    IT 

 










Legend :    VFR   Marginal VFR   IFR   Intensive IFR   Very Intensive IFR
Visi :
Ceiling :
>= 8 km
>= 3000ft
5 to 8 km
1000 to 3000 ft
1500m to 5 km
500 to 1000 ft
800 to 1500m
200 to 500 ft
< 800m
< 200 ft
Symbols :   Thunderstorms  Fog  Heavy snow  Heavy precipitations  Wind > 20 kt
SIGMETs :     Misc.  Thunderstorms  Icing  Turbulence  Mountain Waves  Volcanic Ashes






- Airport Elevation : 285 ft
- IATA code : OZP


LEMO - Sevilla Moron

CURRENT METAR :
  • 162130Z 22009KT CAVOK 23/16 Q1012 NOSIG

EXPIRED METARs :
  • 162100Z 22011KT CAVOK 24/16 Q1011 NOSIG
  • 162030Z 22012KT 200V260 CAVOK 24/15 Q1011 NOSIG
  • 162000Z 23012KT 200V260 CAVOK 25/15 Q1010 NOSIG
  • 161930Z 23014KT 200V260 9999 FEW050 26/15 Q1010 NOSIG
  • 161900Z 23013KT 200V260 9999 FEW050 27/15 Q1009 NOSIG

TAF TAF LEMO
Valid from the 16 at 21:00 until the 17 at 21:00 UTC


162000Z 1621/1721 21010KT CAVOK TX33/1715Z TN18/1705Z
BECMG 1622/1701 32004KT
BECMG 1714/1717 25013KT



MET'MAP, your aeronautical weather chart ! - Copyright ORBIFLY December 2007 - Disclaimer

ORBIFLY MET'MAP TEAM :

Programming & Development : Alexandra Zaïnal
Original concept : Baudouin d'Aumeries
Technical & hardware support : Manuel Goepfert
Assistance : Marc-Olivier Méhu




SOURCES & CREDITS :

   NOAA